createdAt,value
2018-04-24T00:02:20.820Z,3.00
2018-04-24T00:04:48.383Z,2.20
2018-04-24T00:07:15.963Z,2.20
2018-04-24T00:09:44.343Z,2.45
2018-04-24T00:12:11.902Z,2.40
2018-04-24T00:14:39.496Z,2.30
2018-04-24T00:17:07.150Z,2.90
2018-04-24T00:19:34.736Z,2.35
2018-04-24T00:22:02.328Z,2.55
2018-04-24T00:24:29.943Z,2.10
2018-04-24T00:26:57.580Z,2.60
2018-04-24T00:29:25.912Z,2.50
2018-04-24T00:31:53.503Z,2.00
2018-04-24T00:34:21.053Z,2.33
2018-04-24T00:36:49.347Z,2.50
2018-04-24T00:39:16.871Z,4.20
2018-04-24T00:41:44.396Z,2.40
2018-04-24T00:44:11.938Z,2.58
2018-04-24T00:46:40.267Z,2.17
2018-04-24T00:49:07.792Z,2.30
2018-04-24T00:51:35.343Z,3.00
2018-04-24T00:54:03.659Z,2.45
2018-04-24T00:56:31.211Z,2.72
2018-04-24T00:58:58.775Z,2.70
2018-04-24T01:01:26.328Z,2.50
2018-04-24T01:03:53.866Z,2.42
2018-04-24T01:06:21.426Z,2.30
2018-04-24T01:08:49.062Z,2.92
2018-04-24T01:11:17.328Z,2.80
2018-04-24T01:13:44.868Z,2.60
2018-04-24T01:16:12.421Z,2.80
2018-04-24T01:18:39.979Z,3.00
2018-04-24T01:21:07.568Z,2.90
2018-04-24T01:23:35.098Z,2.60
2018-04-24T01:26:02.603Z,3.00
2018-04-24T01:28:30.131Z,2.97
2018-04-24T01:30:57.691Z,3.30
2018-04-24T01:33:25.251Z,2.97
2018-04-24T01:35:52.827Z,2.83
2018-04-24T01:38:20.380Z,3.80
2018-04-24T01:40:47.901Z,3.40
2018-04-24T01:43:15.484Z,3.00
2018-04-24T01:45:43.083Z,3.40
2018-04-24T01:48:10.610Z,3.20
2018-04-24T01:50:38.143Z,3.25
2018-04-24T01:53:06.447Z,2.80
2018-04-24T01:55:33.951Z,2.60
2018-04-24T01:58:02.332Z,2.90
2018-04-24T02:00:29.939Z,3.58
2018-04-24T02:02:57.479Z,3.28
2018-04-24T02:05:25.086Z,3.42
2018-04-24T02:07:52.825Z,4.30
2018-04-24T02:10:20.390Z,3.45
2018-04-24T02:12:48.052Z,3.05
2018-04-24T02:15:15.642Z,3.90
2018-04-24T02:17:43.157Z,3.08
2018-04-24T02:20:10.729Z,4.70
2018-04-24T02:22:38.326Z,2.85
2018-04-24T02:25:05.877Z,3.30
2018-04-24T02:27:33.436Z,3.72
2018-04-24T02:30:01.102Z,3.78
2018-04-24T02:32:28.650Z,3.22
2018-04-24T02:34:56.200Z,3.60
2018-04-24T02:37:23.863Z,3.05
2018-04-24T02:39:51.513Z,3.37
2018-04-24T02:42:19.140Z,3.03
2018-04-24T02:44:46.642Z,3.03
2018-04-24T02:47:14.265Z,3.35
2018-04-24T02:49:42.580Z,3.35
2018-04-24T02:52:10.208Z,3.03
2018-04-24T02:54:37.788Z,3.70
2018-04-24T02:57:05.351Z,3.80
2018-04-24T02:59:32.937Z,3.00
2018-04-24T03:02:00.559Z,3.85
2018-04-24T03:04:28.125Z,3.75
2018-04-24T03:06:56.510Z,3.97
2018-04-24T03:09:24.094Z,3.87
2018-04-24T03:11:51.831Z,4.80
2018-04-24T03:14:19.385Z,3.55
2018-04-24T03:16:46.960Z,4.00
2018-04-24T03:19:14.610Z,4.93
2018-04-24T03:21:42.260Z,3.95
2018-04-24T03:24:09.763Z,3.45
2018-04-24T03:26:37.323Z,3.25
2018-04-24T03:29:05.701Z,3.65
2018-04-24T03:31:34.184Z,3.95
2018-04-24T03:34:01.736Z,3.50
2018-04-24T03:36:29.414Z,4.90
2018-04-24T03:38:57.767Z,4.20
2018-04-24T03:41:25.498Z,5.12
2018-04-24T03:43:53.410Z,4.55
2018-04-24T03:46:21.009Z,4.03
2018-04-24T03:48:48.630Z,3.80
2018-04-24T03:53:51.696Z,4.40
2018-04-24T03:56:19.299Z,4.35
2018-04-24T03:58:46.900Z,4.75
2018-04-24T04:01:14.464Z,4.72
2018-04-24T04:03:42.073Z,5.53
2018-04-24T04:06:09.567Z,5.10
2018-04-24T04:08:37.899Z,4.53
2018-04-24T04:11:05.523Z,4.65
2018-04-24T04:13:34.225Z,4.90
2018-04-24T04:16:01.862Z,4.28
2018-04-24T04:18:41.308Z,4.65
2018-04-24T04:21:20.679Z,4.90
2018-04-24T04:24:00.227Z,4.57
2018-04-24T04:26:27.850Z,5.22
2018-04-24T04:28:55.350Z,4.80
2018-04-24T04:31:23.008Z,4.47
2018-04-24T04:33:50.562Z,4.47
2018-04-24T04:36:18.117Z,5.15
2018-04-24T04:38:45.685Z,4.18
2018-04-24T04:41:13.200Z,4.80
2018-04-24T04:43:41.502Z,5.45
2018-04-24T04:46:09.049Z,4.80
2018-04-24T04:48:36.547Z,5.10
2018-04-24T04:51:04.084Z,4.62
2018-04-24T04:53:31.659Z,3.90
2018-04-24T04:55:59.270Z,4.47
2018-04-24T04:58:26.796Z,4.15
2018-04-24T05:00:54.416Z,4.15
2018-04-24T05:03:22.760Z,4.35
2018-04-24T05:05:51.140Z,4.28
2018-04-24T05:08:19.414Z,4.78
2018-04-24T05:10:47.737Z,4.60
2018-04-24T05:13:15.410Z,4.62
2018-04-24T05:15:43.081Z,4.55
2018-04-24T05:18:10.659Z,5.00
2018-04-24T05:20:38.951Z,5.03
2018-04-24T05:23:07.280Z,5.10
2018-04-24T05:25:34.941Z,4.00
2018-04-24T05:28:02.451Z,3.75
2018-04-24T05:30:30.013Z,4.82
2018-04-24T05:32:58.350Z,4.32
2018-04-24T05:35:25.893Z,4.93
2018-04-24T05:37:53.498Z,4.10
2018-04-24T05:40:22.276Z,4.32
2018-04-24T05:42:49.875Z,4.95
2018-04-24T05:45:18.172Z,4.85
2018-04-24T05:47:47.734Z,5.03
2018-04-24T05:50:16.073Z,5.12
2018-04-24T05:52:43.667Z,5.68
2018-04-24T05:55:11.453Z,5.47
2018-04-24T05:57:39.787Z,4.75
2018-04-24T06:00:07.346Z,5.37
2018-04-24T06:02:34.951Z,4.45
2018-04-24T06:05:03.228Z,5.22
2018-04-24T06:07:30.788Z,5.55
2018-04-24T06:09:58.361Z,6.62
2018-04-24T06:12:26.688Z,6.32
2018-04-24T06:14:54.231Z,6.12
2018-04-24T06:17:21.866Z,5.43
2018-04-24T06:19:49.367Z,5.55
2018-04-24T06:22:16.930Z,6.10
2018-04-24T06:24:47.110Z,5.25
2018-04-24T06:27:18.891Z,6.65
2018-04-24T06:29:46.623Z,5.43
2018-04-24T06:32:14.974Z,6.82
2018-04-24T06:34:42.605Z,6.12
2018-04-24T06:37:10.531Z,6.22
2018-04-24T06:39:38.094Z,6.28
2018-04-24T06:42:05.651Z,6.10
2018-04-24T06:44:33.255Z,6.50
2018-04-24T06:47:00.781Z,5.82
2018-04-24T06:49:28.668Z,6.57
2018-04-24T06:51:56.167Z,7.15
2018-04-24T06:54:24.701Z,8.50
2018-04-24T06:56:52.703Z,7.30
2018-04-24T06:59:20.210Z,6.87
2018-04-24T07:01:47.761Z,6.10
2018-04-24T07:04:15.259Z,6.32
2018-04-24T07:06:42.807Z,6.53
2018-04-24T07:09:10.363Z,7.20
2018-04-24T07:11:37.863Z,7.15
2018-04-24T07:14:05.355Z,7.32
2018-04-24T07:16:32.895Z,6.30
2018-04-24T07:19:01.170Z,8.43
2018-04-24T07:21:29.446Z,7.35
2018-04-24T07:23:57.731Z,7.95
2018-04-24T07:26:27.519Z,7.97
2018-04-24T07:28:55.091Z,7.75
2018-04-24T07:31:22.600Z,7.68
2018-04-24T07:33:50.098Z,7.22
2018-04-24T07:36:17.595Z,6.65
2018-04-24T07:38:45.123Z,7.97
2018-04-24T07:41:12.625Z,7.15
2018-04-24T07:43:40.166Z,7.70
2018-04-24T07:46:08.465Z,7.40
2018-04-24T07:48:36.211Z,7.65
2018-04-24T07:51:03.718Z,8.65
2018-04-24T07:53:31.354Z,7.85
2018-04-24T07:55:58.867Z,7.62
2018-04-24T07:58:27.159Z,7.55
2018-04-24T08:00:54.689Z,7.75
2018-04-24T08:03:22.191Z,8.65
2018-04-24T08:05:49.687Z,8.00
2018-04-24T08:08:17.228Z,8.32
2018-04-24T08:10:44.712Z,8.13
2018-04-24T08:13:12.207Z,8.23
2018-04-24T08:15:40.503Z,8.43
2018-04-24T08:18:08.015Z,8.95
2018-04-24T08:20:35.535Z,8.43
2018-04-24T08:23:03.050Z,8.43
2018-04-24T08:25:31.322Z,8.90
2018-04-24T08:27:59.103Z,9.02
2018-04-24T08:30:27.462Z,9.13
2018-04-24T08:32:55.743Z,10.00
2018-04-24T08:35:24.018Z,9.23
2018-04-24T08:37:51.517Z,10.75
2018-04-24T08:40:19.082Z,9.82
2018-04-24T08:42:46.626Z,10.38
2018-04-24T08:45:14.227Z,10.65
2018-04-24T08:47:41.721Z,9.95
2018-04-24T08:50:09.727Z,10.77
2018-04-24T08:52:37.255Z,10.18
2018-04-24T08:55:05.523Z,10.82
2018-04-24T08:57:33.807Z,11.82
2018-04-24T09:00:02.084Z,12.70
2018-04-24T09:02:30.363Z,11.32
2018-04-24T09:04:58.659Z,11.73
2018-04-24T09:07:26.163Z,12.37
2018-04-24T09:09:54.167Z,12.32
2018-04-24T09:12:22.463Z,11.77
2018-04-24T09:14:49.973Z,12.55
2018-04-24T09:17:17.475Z,11.68
2018-04-24T09:19:44.995Z,11.75
2018-04-24T09:22:14.211Z,13.00
2018-04-24T09:24:42.546Z,11.40
2018-04-24T09:27:10.122Z,11.45
2018-04-24T09:29:37.611Z,10.85
2018-04-24T09:32:05.896Z,12.45
2018-04-24T09:34:34.216Z,11.90
2018-04-24T09:37:01.730Z,11.30
2018-04-24T09:39:29.239Z,12.30
2018-04-24T09:41:56.777Z,11.23
2018-04-24T09:44:24.289Z,11.23
2018-04-24T09:46:51.796Z,13.85
2018-04-24T09:49:19.325Z,11.27
2018-04-24T09:51:46.835Z,11.15
2018-04-24T09:54:14.339Z,12.13
2018-04-24T09:56:42.624Z,11.70
2018-04-24T09:59:10.126Z,11.02
2018-04-24T10:01:37.627Z,10.55
2018-04-24T10:04:05.931Z,10.65
2018-04-24T10:06:33.439Z,12.57
2018-04-24T10:09:02.147Z,10.73
2018-04-24T10:11:30.531Z,12.07
2018-04-24T10:13:58.811Z,12.10
2018-04-24T10:16:27.116Z,11.88
2018-04-24T10:18:54.643Z,12.48
2018-04-24T10:21:22.916Z,10.93
2018-04-24T10:23:51.926Z,11.68
2018-04-24T10:26:19.537Z,11.88
2018-04-24T10:28:47.096Z,11.65
2018-04-24T10:31:14.625Z,11.30
2018-04-24T10:33:42.150Z,12.68
2018-04-24T10:36:09.668Z,12.05
2018-04-24T10:38:37.175Z,10.63
2018-04-24T10:41:05.466Z,12.82
2018-04-24T10:43:32.974Z,11.85
2018-04-24T10:46:00.483Z,12.65
2018-04-24T10:48:28.015Z,12.18
2018-04-24T10:50:56.315Z,12.60
2018-04-24T10:53:23.859Z,12.88
2018-04-24T10:55:52.209Z,11.20
2018-04-24T10:58:19.738Z,11.93
2018-04-24T11:00:47.255Z,11.50
2018-04-24T11:03:15.570Z,10.13
2018-04-24T11:05:43.100Z,12.00
2018-04-24T11:08:11.372Z,10.77
2018-04-24T11:10:38.967Z,9.90
2018-04-24T11:13:06.487Z,10.27
2018-04-24T11:15:34.760Z,9.63
2018-04-24T11:18:03.051Z,10.13
2018-04-24T11:20:30.547Z,9.77
2018-04-24T11:22:58.055Z,9.17
2018-04-24T11:25:26.359Z,10.63
2018-04-24T11:27:54.850Z,9.80
2018-04-24T11:30:22.422Z,8.23
2018-04-24T11:32:49.925Z,9.30
2018-04-24T11:35:17.419Z,9.47
2018-04-24T11:37:44.926Z,10.90
2018-04-24T11:40:12.479Z,9.80
2018-04-24T11:42:39.977Z,9.17
2018-04-24T11:45:07.536Z,9.77
2018-04-24T11:47:35.096Z,10.32
2018-04-24T11:50:02.619Z,9.67
2018-04-24T11:52:30.123Z,9.80
2018-04-24T11:54:58.409Z,9.98
2018-04-24T11:57:25.927Z,9.25
2018-04-24T11:59:53.435Z,10.33
2018-04-24T12:02:20.975Z,10.10
2018-04-24T12:04:48.489Z,9.10
2018-04-24T12:07:16.000Z,9.43
2018-04-24T12:09:43.641Z,9.02
2018-04-24T12:12:11.174Z,9.25
2018-04-24T12:14:38.708Z,8.30
2018-04-24T12:17:06.220Z,8.33
2018-04-24T12:19:34.491Z,7.93
2018-04-24T12:22:02.772Z,7.27
2018-04-24T12:24:31.078Z,8.10
2018-04-24T12:26:58.624Z,7.53
2018-04-24T12:29:26.131Z,8.50
2018-04-24T12:31:53.643Z,7.33
2018-04-24T12:34:21.148Z,8.50
2018-04-24T12:36:48.648Z,8.10
2018-04-24T12:39:16.256Z,7.83
2018-04-24T12:41:43.760Z,6.20
2018-04-24T12:44:12.062Z,6.30
2018-04-24T12:46:39.571Z,6.37
2018-04-24T12:49:07.849Z,7.50
2018-04-24T12:51:35.400Z,5.57
2018-04-24T12:54:03.133Z,6.23
2018-04-24T12:56:30.668Z,6.20
2018-04-24T12:58:58.203Z,5.77
2018-04-24T13:01:26.511Z,5.93
2018-04-24T13:03:54.090Z,6.03
2018-04-24T13:06:21.549Z,5.13
2018-04-24T13:08:49.055Z,5.97
2018-04-24T13:11:16.551Z,6.17
2018-04-24T13:13:44.064Z,5.47
2018-04-24T13:16:11.569Z,5.27
2018-04-24T13:18:39.081Z,4.63
2018-04-24T13:21:06.631Z,5.53
2018-04-24T13:23:34.230Z,5.50
2018-04-24T13:26:01.778Z,6.60
2018-04-24T13:28:29.356Z,7.10
2018-04-24T13:30:57.531Z,6.33
2018-04-24T13:33:25.630Z,6.60
2018-04-24T13:35:53.246Z,6.97
2018-04-24T13:38:20.720Z,6.47
2018-04-24T13:40:49.116Z,6.57
2018-04-24T13:43:16.719Z,5.93
2018-04-24T13:45:44.163Z,5.40
2018-04-24T13:48:11.685Z,5.37
2018-04-24T13:50:39.306Z,6.57
2018-04-24T13:53:06.867Z,6.83
2018-04-24T13:55:34.399Z,6.23
2018-04-24T13:58:01.907Z,6.00
2018-04-24T14:00:30.196Z,5.53
2018-04-24T14:02:57.714Z,5.40
2018-04-24T14:05:25.255Z,5.70
2018-04-24T14:07:52.753Z,5.40
2018-04-24T14:10:21.011Z,5.53
2018-04-24T14:12:48.540Z,6.17
2018-04-24T14:15:18.444Z,6.30
2018-04-24T14:17:47.071Z,6.43
2018-04-24T14:20:14.590Z,5.47
2018-04-24T14:22:42.149Z,6.00
2018-04-24T14:25:09.647Z,5.80
2018-04-24T14:27:37.193Z,6.50
2018-04-24T14:30:04.702Z,5.80
2018-04-24T14:32:32.372Z,6.77
2018-04-24T14:34:59.979Z,5.50
2018-04-24T14:37:29.232Z,6.40
2018-04-24T14:39:57.451Z,6.30
2018-04-24T14:42:26.696Z,7.17
2018-04-24T14:44:55.466Z,5.70
2018-04-24T14:47:23.747Z,6.33
2018-04-24T14:49:52.047Z,7.70
2018-04-24T14:52:19.579Z,7.73
2018-04-24T14:54:47.939Z,6.70
2018-04-24T14:57:17.699Z,8.13
2018-04-24T14:59:45.191Z,8.97
2018-04-24T15:02:12.750Z,8.97
2018-04-24T15:04:40.275Z,8.73
2018-04-24T15:07:08.025Z,9.57
2018-04-24T15:09:35.550Z,8.20
2018-04-24T15:12:03.129Z,7.67
2018-04-24T15:14:30.705Z,8.80
2018-04-24T15:16:59.034Z,7.20
2018-04-24T15:19:26.619Z,7.70
2018-04-24T15:21:54.210Z,7.70
2018-04-24T15:24:21.787Z,7.23
2018-04-24T15:26:49.303Z,6.57
2018-04-24T15:29:16.816Z,7.23
2018-04-24T15:31:44.460Z,8.70
2018-04-24T15:34:12.011Z,7.93
2018-04-24T15:36:39.563Z,7.30
2018-04-24T15:39:10.824Z,7.90
2018-04-24T15:41:38.892Z,9.07
2018-04-24T15:44:18.415Z,8.10
2018-04-24T15:46:47.169Z,8.47
2018-04-24T15:49:14.834Z,8.70
2018-04-24T15:51:42.394Z,9.73
2018-04-24T15:54:10.013Z,9.17
2018-04-24T15:56:37.601Z,9.63
2018-04-24T15:59:05.308Z,9.90
2018-04-24T16:01:33.614Z,8.93
2018-04-24T16:04:05.990Z,8.27
2018-04-24T16:06:33.819Z,8.93
2018-04-24T16:09:01.421Z,9.37
2018-04-24T16:11:29.036Z,9.10
2018-04-24T16:13:58.503Z,9.77
2018-04-24T16:16:26.021Z,10.03
2018-04-24T16:18:53.643Z,9.63
2018-04-24T16:21:21.236Z,9.83
2018-04-24T16:23:49.556Z,10.43
2018-04-24T16:26:18.125Z,11.03
2018-04-24T16:28:45.663Z,11.17
2018-04-24T16:31:13.248Z,9.17
2018-04-24T16:33:40.844Z,9.97
2018-04-24T16:36:08.834Z,10.37
2018-04-24T16:38:37.774Z,9.87
2018-04-24T16:41:06.531Z,8.97
2018-04-24T16:43:34.866Z,9.57
2018-04-24T16:46:02.450Z,9.87
2018-04-24T16:48:30.771Z,8.73
2018-04-24T16:50:58.405Z,8.80
2018-04-24T16:53:26.006Z,8.27
2018-04-24T16:55:53.515Z,8.10
2018-04-24T16:58:21.872Z,8.23
2018-04-24T17:00:53.880Z,8.80
2018-04-24T17:03:21.504Z,8.00
2018-04-24T17:05:49.062Z,7.20
2018-04-24T17:08:22.144Z,7.00
2018-04-24T17:10:49.752Z,7.23
2018-04-24T17:13:17.372Z,6.77
2018-04-24T17:15:44.885Z,6.80
2018-04-24T17:18:12.423Z,5.30
2018-04-24T17:20:40.708Z,7.20
2018-04-24T17:23:08.265Z,6.00
2018-04-24T17:25:36.673Z,5.67
2018-04-24T17:28:04.151Z,4.50
2018-04-24T17:30:31.723Z,4.70
2018-04-24T17:32:59.349Z,4.97
2018-04-24T17:35:26.941Z,5.20
2018-04-24T17:37:54.498Z,4.73
2018-04-24T17:40:22.045Z,4.80
2018-04-24T17:42:49.650Z,4.70
2018-04-24T17:45:17.135Z,4.10
2018-04-24T17:47:44.694Z,3.80
2018-04-24T17:50:15.642Z,4.20
2018-04-24T17:52:44.549Z,3.30
2018-04-24T17:55:12.149Z,3.30
2018-04-24T17:57:42.312Z,3.50
2018-04-24T18:00:09.876Z,3.70
2018-04-24T18:02:37.396Z,4.40
2018-04-24T18:05:05.868Z,4.80
2018-04-24T18:07:33.902Z,3.40
2018-04-24T18:10:01.470Z,3.43
2018-04-24T18:12:29.032Z,4.43
2018-04-24T18:14:56.635Z,3.73
2018-04-24T18:17:26.321Z,4.00
2018-04-24T18:19:54.619Z,3.27
2018-04-24T18:22:22.182Z,3.73
2018-04-24T18:24:49.798Z,3.40
2018-04-24T18:27:17.406Z,4.47
2018-04-24T18:29:44.997Z,3.73
2018-04-24T18:32:12.526Z,4.10
2018-04-24T18:34:42.500Z,3.80
2018-04-24T18:37:10.137Z,3.83
2018-04-24T18:39:39.083Z,5.00
2018-04-24T18:42:07.373Z,3.60
2018-04-24T18:44:34.912Z,4.33
2018-04-24T18:47:02.419Z,3.70
2018-04-24T18:49:29.980Z,3.90
2018-04-24T18:51:57.500Z,4.37
2018-04-24T18:54:25.830Z,3.93
2018-04-24T18:56:53.488Z,4.20
2018-04-24T19:02:01.331Z,5.07
2018-04-24T19:04:29.677Z,7.73
2018-04-24T19:06:57.314Z,4.73
2018-04-24T19:09:24.936Z,4.50
2018-04-24T19:11:52.577Z,5.30
2018-04-24T19:14:26.266Z,4.37
2018-04-24T19:16:53.948Z,4.80
2018-04-24T19:19:27.665Z,4.87
2018-04-24T19:21:55.394Z,4.63
2018-04-24T19:24:28.592Z,4.97
2018-04-24T19:26:56.323Z,4.80
2018-04-24T19:29:24.114Z,4.30
2018-04-24T19:31:58.649Z,4.77
2018-04-24T19:34:26.378Z,4.97
2018-04-24T19:36:54.127Z,4.80
2018-04-24T19:39:28.120Z,4.70
2018-04-24T19:41:55.714Z,5.13
2018-04-24T19:44:24.210Z,5.13
2018-04-24T19:47:00.951Z,4.97
2018-04-24T19:49:34.300Z,4.47
2018-04-24T19:52:01.835Z,5.57
2018-04-24T19:54:29.508Z,4.90
2018-04-24T19:56:57.116Z,5.63
2018-04-24T19:59:24.626Z,5.37
2018-04-24T20:01:52.281Z,5.87
2018-04-24T20:04:19.952Z,5.90
2018-04-24T20:06:47.594Z,5.43
2018-04-24T20:09:15.214Z,6.47
2018-04-24T20:11:43.843Z,5.13
2018-04-24T20:14:11.590Z,7.13
2018-04-24T20:16:39.171Z,6.83
2018-04-24T20:19:06.743Z,5.70
2018-04-24T20:21:34.383Z,6.47
2018-04-24T20:24:02.682Z,6.17
2018-04-24T20:26:30.274Z,6.33
2018-04-24T20:28:57.814Z,5.63
2018-04-24T20:31:25.468Z,6.40
2018-04-24T20:33:52.998Z,6.20
2018-04-24T20:36:20.573Z,5.90
2018-04-24T20:38:48.287Z,5.90
2018-04-24T20:41:15.965Z,5.90
2018-04-24T20:43:43.522Z,6.80
2018-04-24T20:46:11.210Z,6.00
2018-04-24T20:48:38.781Z,5.43
2018-04-24T20:51:06.475Z,5.77
2018-04-24T20:53:34.120Z,5.80
2018-04-24T20:56:01.606Z,5.20
2018-04-24T20:58:29.181Z,4.60
2018-04-24T21:00:57.602Z,4.93
2018-04-24T21:03:25.979Z,6.00
2018-04-24T21:05:53.532Z,6.00
2018-04-24T21:08:21.185Z,5.50
2018-04-24T21:10:48.846Z,5.73
2018-04-24T21:13:17.192Z,5.67
2018-04-24T21:15:44.889Z,7.13
2018-04-24T21:18:12.645Z,6.17
2018-04-24T21:20:40.283Z,6.17
2018-04-24T21:23:07.892Z,5.93
2018-04-24T21:25:35.510Z,5.73
2018-04-24T21:28:03.209Z,6.43
2018-04-24T21:30:30.854Z,5.97
2018-04-24T21:32:58.578Z,5.63
2018-04-24T21:35:26.243Z,5.63
2018-04-24T21:37:53.882Z,6.70
2018-04-24T21:40:21.537Z,7.00
2018-04-24T21:42:49.157Z,6.50
2018-04-24T21:45:18.300Z,7.17
2018-04-24T21:47:45.886Z,6.00
2018-04-24T21:50:13.582Z,6.43
2018-04-24T21:52:41.187Z,7.13
2018-04-24T21:55:08.699Z,6.00
2018-04-24T21:57:36.252Z,7.10
2018-04-24T22:00:03.904Z,6.13
2018-04-24T22:02:31.717Z,7.53
2018-04-24T22:05:18.396Z,6.60
2018-04-24T22:07:50.321Z,7.57
2018-04-24T22:10:21.458Z,7.77
2018-04-24T22:12:49.092Z,7.33
2018-04-24T22:15:25.474Z,8.27
2018-04-24T22:17:53.077Z,8.30
2018-04-24T22:20:23.349Z,8.40
2018-04-24T22:22:51.655Z,9.73
2018-04-24T22:25:19.235Z,10.10
2018-04-24T22:27:57.988Z,9.53
2018-04-24T22:30:26.130Z,10.87
2018-04-24T22:32:56.611Z,11.87
2018-04-24T22:35:41.063Z,10.93
2018-04-24T22:38:35.887Z,13.90
2018-04-24T22:41:09.375Z,14.63
2018-04-24T22:43:37.579Z,16.60
2018-04-24T22:46:05.246Z,15.50
2018-04-24T22:48:32.928Z,15.60
2018-04-24T22:51:00.640Z,15.70
2018-04-24T22:53:28.369Z,16.30
2018-04-24T22:55:55.901Z,15.00
2018-04-24T22:58:23.615Z,13.73
2018-04-24T23:00:51.250Z,15.10
2018-04-24T23:03:18.914Z,13.93
2018-04-24T23:05:47.469Z,13.60
2018-04-24T23:08:15.144Z,14.40
2018-04-24T23:10:54.696Z,13.70
2018-04-24T23:13:34.152Z,12.98
2018-04-24T23:16:13.713Z,13.07
2018-04-24T23:18:53.162Z,12.63
2018-04-24T23:21:20.280Z,12.30
2018-04-24T23:23:47.974Z,12.90
2018-04-24T23:26:15.643Z,12.60
2018-04-24T23:28:43.210Z,13.32
2018-04-24T23:31:10.852Z,12.77
2018-04-24T23:33:38.561Z,11.98
2018-04-24T23:36:06.197Z,11.63
2018-04-24T23:38:33.888Z,11.40
2018-04-24T23:41:02.244Z,12.00
2018-04-24T23:43:29.936Z,12.47
2018-04-24T23:45:58.304Z,11.97
2018-04-24T23:48:26.716Z,10.83
2018-04-24T23:50:54.423Z,11.25
2018-04-24T23:53:21.998Z,12.75
2018-04-24T23:55:49.620Z,12.30
2018-04-24T23:58:17.220Z,11.60
